Terminal Aerodrome Forecast
Issued by NWS Blacksburg, VA

Home | Current Version | Previous Version | Text Only | Print | Product List | Glossary On
Versions: 1 2 3 4 5 6 7 8 9 10 11 12 13 14 15 16 17 18 19 20 21 22 23 24 25 26 27 28
000
FTUS41 KRNK 020529
TAFLYH
TAF
KLYH 020529Z 0206/0306 00000KT P6SM VCSH SCT040 OVC070
     FM021000 VRB03KT P6SM VCSH BKN025 OVC040
     FM021500 24004KT P6SM VCSH SCT030 BKN040
     FM022100 23005KT P6SM -SHRA SCT025 BKN035
      TEMPO 0221/0301 3SM -TSRA OVC020CB
     FM030100 VRB03KT P6SM VCTS OVC050CB=

USA.gov is the U.S. government's official web portal to all federal, state and local government web resources and services.